Terminal Aerodrome Forecast
Issued by NWS

Home | Current Version | Previous Version | Text Only | Print | Product List | Glossary On
Versions: 1 2 3 4 5 6 7 8 9 10 11 12 13 14 15 16 17
000
FTUS44 KJAN 171955 AAA
TAFGTR
TAF AMD
KGTR 171955Z 1720/1818 22008KT P6SM VCSH SCT015 OVC023
     FM172200 33008KT 6SM -SHRA BR SCT008 OVC015
     FM181000 06008KT P6SM BKN007 OVC015
     FM181600 12010KT P6SM OVC015=

USA.gov is the U.S. government's official web portal to all federal, state and local government web resources and services.